sensor_id;sensor_type;location;lat;lon;timestamp;pressure;altitude;pressure_sealevel;temperature;humidity
22020;BME280;51298;53.362;-1.518;2024-01-07T00:01:13;100219.09;;;2.73;90.90
22020;BME280;51298;53.362;-1.518;2024-01-07T00:03:46;100222.41;;;2.75;90.73
22020;BME280;51298;53.362;-1.518;2024-01-07T00:06:33;100226.28;;;2.82;90.64
22020;BME280;51298;53.362;-1.518;2024-01-07T00:09:07;100223.72;;;2.82;90.61
22020;BME280;51298;53.362;-1.518;2024-01-07T00:11:53;100234.97;;;2.81;90.99
22020;BME280;51298;53.362;-1.518;2024-01-07T00:14:27;100222.97;;;2.80;90.97
22020;BME280;51298;53.362;-1.518;2024-01-07T00:17:15;100231.56;;;2.81;90.80
22020;BME280;51298;53.362;-1.518;2024-01-07T00:19:47;100235.84;;;2.80;91.30
22020;BME280;51298;53.362;-1.518;2024-01-07T00:22:34;100236.88;;;2.78;91.21
22020;BME280;51298;53.362;-1.518;2024-01-07T00:25:08;100238.88;;;2.73;91.47
22020;BME280;51298;53.362;-1.518;2024-01-07T00:27:54;100246.44;;;2.76;91.37
22020;BME280;51298;53.362;-1.518;2024-01-07T00:30:28;100250.69;;;2.77;90.96
22020;BME280;51298;53.362;-1.518;2024-01-07T00:33:16;100239.22;;;2.66;91.43
22020;BME280;51298;53.362;-1.518;2024-01-07T00:35:50;100245.06;;;2.70;91.86
22020;BME280;51298;53.362;-1.518;2024-01-07T00:38:39;100249.44;;;2.68;91.81
22020;BME280;51298;53.362;-1.518;2024-01-07T00:41:12;100247.63;;;2.70;92.22
22020;BME280;51298;53.362;-1.518;2024-01-07T00:43:59;100250.03;;;2.73;92.16
22020;BME280;51298;53.362;-1.518;2024-01-07T00:46:32;100253.44;;;2.74;91.61
22020;BME280;51298;53.362;-1.518;2024-01-07T00:49:20;100258.50;;;2.75;91.99
22020;BME280;51298;53.362;-1.518;2024-01-07T00:51:59;100257.78;;;2.73;92.22
22020;BME280;51298;53.362;-1.518;2024-01-07T00:54:47;100264.88;;;2.69;91.87
22020;BME280;51298;53.362;-1.518;2024-01-07T00:57:22;100267.25;;;2.73;92.38
22020;BME280;51298;53.362;-1.518;2024-01-07T01:00:09;100272.25;;;2.76;92.30
22020;BME280;51298;53.362;-1.518;2024-01-07T01:02:43;100272.19;;;2.77;92.39
22020;BME280;51298;53.362;-1.518;2024-01-07T01:05:29;100274.91;;;2.74;92.00
22020;BME280;51298;53.362;-1.518;2024-01-07T01:08:02;100282.00;;;2.71;92.27
22020;BME280;51298;53.362;-1.518;2024-01-07T01:10:49;100285.72;;;2.65;92.09
22020;BME280;51298;53.362;-1.518;2024-01-07T01:13:22;100281.19;;;2.54;91.73
22020;BME280;51298;53.362;-1.518;2024-01-07T01:16:08;100281.34;;;2.51;92.17
22020;BME280;51298;53.362;-1.518;2024-01-07T01:18:41;100283.50;;;2.43;91.49
22020;BME280;51298;53.362;-1.518;2024-01-07T01:21:27;100282.75;;;2.41;91.60
22020;BME280;51298;53.362;-1.518;2024-01-07T01:24:03;100294.13;;;2.37;92.14
22020;BME280;51298;53.362;-1.518;2024-01-07T01:26:49;100291.81;;;2.32;92.05
22020;BME280;51298;53.362;-1.518;2024-01-07T01:29:23;100286.66;;;2.32;92.30
22020;BME280;51298;53.362;-1.518;2024-01-07T01:32:10;100294.50;;;2.31;92.60
22020;BME280;51298;53.362;-1.518;2024-01-07T01:34:43;100298.47;;;2.36;92.68
22020;BME280;51298;53.362;-1.518;2024-01-07T01:37:32;100291.81;;;2.32;92.09
22020;BME280;51298;53.362;-1.518;2024-01-07T01:40:07;100299.97;;;2.25;92.77
22020;BME280;51298;53.362;-1.518;2024-01-07T01:42:53;100302.78;;;2.20;92.40
22020;BME280;51298;53.362;-1.518;2024-01-07T01:45:28;100301.97;;;2.19;92.50
22020;BME280;51298;53.362;-1.518;2024-01-07T01:48:14;100296.97;;;2.16;92.36
22020;BME280;51298;53.362;-1.518;2024-01-07T01:50:47;100303.63;;;2.20;92.48
22020;BME280;51298;53.362;-1.518;2024-01-07T01:53:34;100312.06;;;2.23;92.56
22020;BME280;51298;53.362;-1.518;2024-01-07T01:56:08;100309.44;;;2.24;92.56
22020;BME280;51298;53.362;-1.518;2024-01-07T01:58:56;100309.03;;;2.32;92.68
22020;BME280;51298;53.362;-1.518;2024-01-07T02:01:30;100316.66;;;2.33;92.41
22020;BME280;51298;53.362;-1.518;2024-01-07T02:04:17;100318.31;;;2.34;92.71
22020;BME280;51298;53.362;-1.518;2024-01-07T02:06:50;100322.75;;;2.32;92.72
22020;BME280;51298;53.362;-1.518;2024-01-07T02:09:37;100331.22;;;2.34;92.86
22020;BME280;51298;53.362;-1.518;2024-01-07T02:12:12;100331.97;;;2.36;92.76
22020;BME280;51298;53.362;-1.518;2024-01-07T02:14:58;100341.38;;;2.37;92.64
22020;BME280;51298;53.362;-1.518;2024-01-07T02:17:31;100338.31;;;2.31;92.64
22020;BME280;51298;53.362;-1.518;2024-01-07T02:20:17;100334.25;;;2.42;92.71
22020;BME280;51298;53.362;-1.518;2024-01-07T02:22:52;100344.63;;;2.41;92.27
22020;BME280;51298;53.362;-1.518;2024-01-07T02:25:38;100345.28;;;2.44;92.25
22020;BME280;51298;53.362;-1.518;2024-01-07T02:28:12;100347.56;;;2.51;92.56
22020;BME280;51298;53.362;-1.518;2024-01-07T02:30:59;100354.28;;;2.53;92.14
22020;BME280;51298;53.362;-1.518;2024-01-07T02:33:32;100357.19;;;2.47;92.39
22020;BME280;51298;53.362;-1.518;2024-01-07T02:36:18;100357.06;;;2.50;92.50
22020;BME280;51298;53.362;-1.518;2024-01-07T02:38:51;100360.34;;;2.52;92.38
22020;BME280;51298;53.362;-1.518;2024-01-07T02:41:38;100360.50;;;2.49;92.56
22020;BME280;51298;53.362;-1.518;2024-01-07T02:44:11;100363.19;;;2.48;92.05
22020;BME280;51298;53.362;-1.518;2024-01-07T02:46:57;100370.00;;;2.49;91.94
22020;BME280;51298;53.362;-1.518;2024-01-07T02:49:30;100375.25;;;2.47;92.01
22020;BME280;51298;53.362;-1.518;2024-01-07T02:52:17;100372.00;;;2.43;91.59
22020;BME280;51298;53.362;-1.518;2024-01-07T02:54:50;100368.50;;;2.44;91.83
22020;BME280;51298;53.362;-1.518;2024-01-07T02:57:37;100365.88;;;2.46;91.71
22020;BME280;51298;53.362;-1.518;2024-01-07T03:00:10;100375.25;;;2.47;91.88
22020;BME280;51298;53.362;-1.518;2024-01-07T03:02:58;100370.41;;;2.41;91.39
22020;BME280;51298;53.362;-1.518;2024-01-07T03:05:40;100365.09;;;2.44;91.53
22020;BME280;51298;53.362;-1.518;2024-01-07T03:08:26;100377.47;;;2.37;90.94
22020;BME280;51298;53.362;-1.518;2024-01-07T03:11:21;100381.63;;;2.40;90.68
22020;BME280;51298;53.362;-1.518;2024-01-07T03:14:20;100384.53;;;2.34;90.86
22020;BME280;51298;53.362;-1.518;2024-01-07T03:16:58;100380.97;;;2.36;91.15
22020;BME280;51298;53.362;-1.518;2024-01-07T03:19:49;100384.53;;;2.34;91.13
22020;BME280;51298;53.362;-1.518;2024-01-07T03:22:24;100395.53;;;2.37;91.08
22020;BME280;51298;53.362;-1.518;2024-01-07T03:25:21;100399.09;;;2.35;91.18
22020;BME280;51298;53.362;-1.518;2024-01-07T03:27:56;100409.31;;;2.36;91.66
22020;BME280;51298;53.362;-1.518;2024-01-07T03:30:54;100409.09;;;2.41;91.73
22020;BME280;51298;53.362;-1.518;2024-01-07T03:33:39;100405.00;;;2.37;91.52
22020;BME280;51298;53.362;-1.518;2024-01-07T03:36:37;100411.06;;;2.36;91.68
22020;BME280;51298;53.362;-1.518;2024-01-07T03:39:27;100410.94;;;2.39;91.90
22020;BME280;51298;53.362;-1.518;2024-01-07T03:42:14;100413.66;;;2.36;91.76
22020;BME280;51298;53.362;-1.518;2024-01-07T03:45:13;100416.38;;;2.33;91.60
22020;BME280;51298;53.362;-1.518;2024-01-07T03:48:15;100410.41;;;2.32;91.28
22020;BME280;51298;53.362;-1.518;2024-01-07T03:50:52;100411.75;;;2.39;91.05
22020;BME280;51298;53.362;-1.518;2024-01-07T03:53:39;100414.72;;;2.32;90.87
22020;BME280;51298;53.362;-1.518;2024-01-07T03:56:22;100413.91;;;2.31;91.20
22020;BME280;51298;53.362;-1.518;2024-01-07T03:59:15;100419.94;;;2.30;91.20
22020;BME280;51298;53.362;-1.518;2024-01-07T04:01:56;100419.34;;;2.25;91.09
22020;BME280;51298;53.362;-1.518;2024-01-07T04:04:46;100423.38;;;2.31;90.19
22020;BME280;51298;53.362;-1.518;2024-01-07T04:07:20;100420.97;;;2.28;91.38
22020;BME280;51298;53.362;-1.518;2024-01-07T04:10:19;100426.34;;;2.23;90.75
22020;BME280;51298;53.362;-1.518;2024-01-07T04:12:57;100428.16;;;2.21;90.77
22020;BME280;51298;53.362;-1.518;2024-01-07T04:15:45;100431.50;;;2.23;90.76
22020;BME280;51298;53.362;-1.518;2024-01-07T04:18:20;100436.72;;;2.22;91.22
22020;BME280;51298;53.362;-1.518;2024-01-07T04:21:13;100436.81;;;2.20;90.99
22020;BME280;51298;53.362;-1.518;2024-01-07T04:23:58;100449.75;;;2.18;91.28
22020;BME280;51298;53.362;-1.518;2024-01-07T04:27:13;100453.16;;;2.19;90.83
22020;BME280;51298;53.362;-1.518;2024-01-07T04:29:58;100452.03;;;2.25;90.62
22020;BME280;51298;53.362;-1.518;2024-01-07T04:32:31;100451.59;;;2.16;90.57
22020;BME280;51298;53.362;-1.518;2024-01-07T04:35:26;100453.50;;;2.13;90.58
22020;BME280;51298;53.362;-1.518;2024-01-07T04:38:11;100452.34;;;2.18;90.22
22020;BME280;51298;53.362;-1.518;2024-01-07T04:41:01;100453.25;;;2.17;90.27
22020;BME280;51298;53.362;-1.518;2024-01-07T04:43:37;100447.28;;;2.17;90.73
22020;BME280;51298;53.362;-1.518;2024-01-07T04:46:52;100466.22;;;2.16;91.06
22020;BME280;51298;53.362;-1.518;2024-01-07T04:49:36;100457.66;;;2.15;90.53
22020;BME280;51298;53.362;-1.518;2024-01-07T04:52:18;100460.41;;;2.12;90.45
22020;BME280;51298;53.362;-1.518;2024-01-07T04:55:22;100464.19;;;2.05;89.88
22020;BME280;51298;53.362;-1.518;2024-01-07T04:58:03;100470.84;;;2.09;90.13
22020;BME280;51298;53.362;-1.518;2024-01-07T05:00:50;100469.00;;;2.11;89.93
22020;BME280;51298;53.362;-1.518;2024-01-07T05:03:35;100471.22;;;2.19;90.43
22020;BME280;51298;53.362;-1.518;2024-01-07T05:06:23;100469.63;;;2.16;90.69
22020;BME280;51298;53.362;-1.518;2024-01-07T05:08:58;100465.22;;;2.18;89.78
22020;BME280;51298;53.362;-1.518;2024-01-07T05:12:05;100473.50;;;2.08;89.63
22020;BME280;51298;53.362;-1.518;2024-01-07T05:14:59;100466.63;;;2.08;89.12
22020;BME280;51298;53.362;-1.518;2024-01-07T05:17:35;100467.06;;;1.99;89.10
22020;BME280;51298;53.362;-1.518;2024-01-07T05:20:27;100466.16;;;2.00;89.01
22020;BME280;51298;53.362;-1.518;2024-01-07T05:23:11;100472.44;;;1.94;89.36
22020;BME280;51298;53.362;-1.518;2024-01-07T05:26:05;100479.09;;;1.99;88.80
22020;BME280;51298;53.362;-1.518;2024-01-07T05:28:39;100475.34;;;1.88;89.80
22020;BME280;51298;53.362;-1.518;2024-01-07T05:31:28;100480.63;;;1.85;89.80
22020;BME280;51298;53.362;-1.518;2024-01-07T05:34:05;100484.19;;;1.83;89.62
22020;BME280;51298;53.362;-1.518;2024-01-07T05:37:03;100488.41;;;1.84;89.30
22020;BME280;51298;53.362;-1.518;2024-01-07T05:39:37;100491.91;;;1.83;89.55
22020;BME280;51298;53.362;-1.518;2024-01-07T05:42:27;100495.09;;;1.88;89.29
22020;BME280;51298;53.362;-1.518;2024-01-07T05:45:04;100493.38;;;1.88;89.27
22020;BME280;51298;53.362;-1.518;2024-01-07T05:47:53;100503.25;;;1.79;89.78
22020;BME280;51298;53.362;-1.518;2024-01-07T05:50:27;100499.25;;;1.73;89.35
22020;BME280;51298;53.362;-1.518;2024-01-07T05:53:20;100500.22;;;1.70;89.26
22020;BME280;51298;53.362;-1.518;2024-01-07T05:56:00;100509.69;;;1.70;89.76
22020;BME280;51298;53.362;-1.518;2024-01-07T05:59:10;100514.72;;;1.73;89.69
22020;BME280;51298;53.362;-1.518;2024-01-07T06:01:48;100514.63;;;1.75;89.81
22020;BME280;51298;53.362;-1.518;2024-01-07T06:04:37;100517.47;;;1.68;89.82
22020;BME280;51298;53.362;-1.518;2024-01-07T06:07:10;100518.53;;;1.64;89.77
22020;BME280;51298;53.362;-1.518;2024-01-07T06:09:56;100514.50;;;1.59;89.94
22020;BME280;51298;53.362;-1.518;2024-01-07T06:12:29;100515.69;;;1.70;89.48
22020;BME280;51298;53.362;-1.518;2024-01-07T06:15:15;100517.34;;;1.71;89.95
22020;BME280;51298;53.362;-1.518;2024-01-07T06:17:48;100518.13;;;1.74;89.79
22020;BME280;51298;53.362;-1.518;2024-01-07T06:20:34;100517.88;;;1.78;89.73
22020;BME280;51298;53.362;-1.518;2024-01-07T06:23:07;100524.09;;;1.74;88.97
22020;BME280;51298;53.362;-1.518;2024-01-07T06:25:53;100527.41;;;1.76;89.39
22020;BME280;51298;53.362;-1.518;2024-01-07T06:28:26;100529.84;;;1.79;89.21
22020;BME280;51298;53.362;-1.518;2024-01-07T06:31:15;100542.13;;;1.74;90.14
22020;BME280;51298;53.362;-1.518;2024-01-07T06:33:47;100538.56;;;1.77;89.57
22020;BME280;51298;53.362;-1.518;2024-01-07T06:36:36;100546.28;;;1.77;90.06
22020;BME280;51298;53.362;-1.518;2024-01-07T06:39:09;100544.34;;;1.82;90.22
22020;BME280;51298;53.362;-1.518;2024-01-07T06:41:55;100545.53;;;1.75;89.26
22020;BME280;51298;53.362;-1.518;2024-01-07T06:44:31;100554.00;;;1.77;89.72
22020;BME280;51298;53.362;-1.518;2024-01-07T06:47:18;100558.31;;;1.76;89.72
22020;BME280;51298;53.362;-1.518;2024-01-07T06:49:51;100559.38;;;1.72;89.34
22020;BME280;51298;53.362;-1.518;2024-01-07T06:52:38;100564.66;;;1.69;89.26
22020;BME280;51298;53.362;-1.518;2024-01-07T06:55:13;100564.19;;;1.61;89.80
22020;BME280;51298;53.362;-1.518;2024-01-07T06:57:59;100574.34;;;1.64;89.34
22020;BME280;51298;53.362;-1.518;2024-01-07T07:00:36;100583.38;;;1.73;89.09
22020;BME280;51298;53.362;-1.518;2024-01-07T07:03:22;100576.00;;;1.65;89.24
22020;BME280;51298;53.362;-1.518;2024-01-07T07:05:55;100585.25;;;1.69;89.10
22020;BME280;51298;53.362;-1.518;2024-01-07T07:08:41;100585.25;;;1.69;89.29
22020;BME280;51298;53.362;-1.518;2024-01-07T07:11:16;100591.97;;;1.73;89.11
22020;BME280;51298;53.362;-1.518;2024-01-07T07:14:01;100593.56;;;1.76;89.04
22020;BME280;51298;53.362;-1.518;2024-01-07T07:16:35;100590.97;;;1.76;89.17
22020;BME280;51298;53.362;-1.518;2024-01-07T07:19:21;100596.00;;;1.79;88.66
22020;BME280;51298;53.362;-1.518;2024-01-07T07:21:54;100598.84;;;1.73;89.36
22020;BME280;51298;53.362;-1.518;2024-01-07T07:24:41;100604.06;;;1.71;89.14
22020;BME280;51298;53.362;-1.518;2024-01-07T07:27:14;100608.53;;;1.67;89.43
22020;BME280;51298;53.362;-1.518;2024-01-07T07:30:00;100608.44;;;1.69;89.26
22020;BME280;51298;53.362;-1.518;2024-01-07T07:32:39;100615.91;;;1.75;89.43
22020;BME280;51298;53.362;-1.518;2024-01-07T07:35:25;100617.72;;;1.73;89.36
22020;BME280;51298;53.362;-1.518;2024-01-07T07:38:01;100614.94;;;1.78;89.02
22020;BME280;51298;53.362;-1.518;2024-01-07T07:40:48;100619.19;;;1.79;89.04
22020;BME280;51298;53.362;-1.518;2024-01-07T07:43:25;100625.38;;;1.75;89.33
22020;BME280;51298;53.362;-1.518;2024-01-07T07:46:11;100630.09;;;1.84;88.88
22020;BME280;51298;53.362;-1.518;2024-01-07T07:48:44;100631.56;;;1.70;89.59
22020;BME280;51298;53.362;-1.518;2024-01-07T07:51:30;100638.47;;;1.70;89.47
22020;BME280;51298;53.362;-1.518;2024-01-07T07:54:06;100647.66;;;1.76;89.59
22020;BME280;51298;53.362;-1.518;2024-01-07T07:56:52;100658.16;;;1.71;89.65
22020;BME280;51298;53.362;-1.518;2024-01-07T07:59:25;100651.00;;;1.78;89.40
22020;BME280;51298;53.362;-1.518;2024-01-07T08:02:15;100651.22;;;1.73;89.77
22020;BME280;51298;53.362;-1.518;2024-01-07T08:04:48;100645.97;;;1.75;89.77
22020;BME280;51298;53.362;-1.518;2024-01-07T08:07:36;100654.63;;;1.74;89.67
22020;BME280;51298;53.362;-1.518;2024-01-07T08:10:09;100661.34;;;1.76;89.56
22020;BME280;51298;53.362;-1.518;2024-01-07T08:12:55;100670.69;;;1.79;89.58
22020;BME280;51298;53.362;-1.518;2024-01-07T08:15:28;100681.22;;;1.74;89.51
22020;BME280;51298;53.362;-1.518;2024-01-07T08:18:14;100678.34;;;1.80;89.59
22020;BME280;51298;53.362;-1.518;2024-01-07T08:20:47;100679.97;;;1.83;89.85
22020;BME280;51298;53.362;-1.518;2024-01-07T08:23:35;100679.38;;;1.76;89.04
22020;BME280;51298;53.362;-1.518;2024-01-07T08:26:08;100690.38;;;1.80;89.11
22020;BME280;51298;53.362;-1.518;2024-01-07T08:28:54;100688.72;;;1.79;88.22
22020;BME280;51298;53.362;-1.518;2024-01-07T08:31:31;100685.38;;;1.77;87.90
22020;BME280;51298;53.362;-1.518;2024-01-07T08:34:19;100697.06;;;1.65;87.86
22020;BME280;51298;53.362;-1.518;2024-01-07T08:36:53;100703.91;;;1.66;87.73
22020;BME280;51298;53.362;-1.518;2024-01-07T08:39:40;100713.09;;;1.71;88.13
22020;BME280;51298;53.362;-1.518;2024-01-07T08:42:13;100702.28;;;1.63;86.66
22020;BME280;51298;53.362;-1.518;2024-01-07T08:44:59;100700.34;;;1.68;86.78
22020;BME280;51298;53.362;-1.518;2024-01-07T08:47:34;100705.34;;;1.71;87.47
22020;BME280;51298;53.362;-1.518;2024-01-07T08:50:21;100713.88;;;1.74;85.80
22020;BME280;51298;53.362;-1.518;2024-01-07T08:52:54;100708.16;;;1.67;85.97
22020;BME280;51298;53.362;-1.518;2024-01-07T08:55:46;100709.59;;;1.73;86.70
22020;BME280;51298;53.362;-1.518;2024-01-07T08:58:19;100712.94;;;1.75;87.08
22020;BME280;51298;53.362;-1.518;2024-01-07T09:01:06;100713.66;;;1.78;87.25
22020;BME280;51298;53.362;-1.518;2024-01-07T09:03:39;100719.31;;;1.86;87.73
22020;BME280;51298;53.362;-1.518;2024-01-07T09:06:25;100707.47;;;1.82;87.64
22020;BME280;51298;53.362;-1.518;2024-01-07T09:09:00;100713.72;;;1.77;86.97
22020;BME280;51298;53.362;-1.518;2024-01-07T09:11:46;100717.69;;;1.84;86.40
22020;BME280;51298;53.362;-1.518;2024-01-07T09:14:19;100710.03;;;1.82;86.71
22020;BME280;51298;53.362;-1.518;2024-01-07T09:17:06;100720.00;;;1.90;87.11
22020;BME280;51298;53.362;-1.518;2024-01-07T09:19:39;100717.69;;;1.84;85.92
22020;BME280;51298;53.362;-1.518;2024-01-07T09:22:25;100717.28;;;1.93;84.97
22020;BME280;51298;53.362;-1.518;2024-01-07T09:24:58;100712.53;;;2.03;84.82
22020;BME280;51298;53.362;-1.518;2024-01-07T09:27:45;100726.47;;;1.99;84.58
22020;BME280;51298;53.362;-1.518;2024-01-07T09:30:18;100731.75;;;1.95;85.49
22020;BME280;51298;53.362;-1.518;2024-01-07T09:33:05;100729.66;;;2.04;85.11
22020;BME280;51298;53.362;-1.518;2024-01-07T09:35:38;100731.63;;;1.99;84.75
22020;BME280;51298;53.362;-1.518;2024-01-07T09:38:24;100732.94;;;2.07;84.35
22020;BME280;51298;53.362;-1.518;2024-01-07T09:41:01;100743.13;;;2.10;84.84
22020;BME280;51298;53.362;-1.518;2024-01-07T09:43:48;100742.38;;;2.27;84.51
22020;BME280;51298;53.362;-1.518;2024-01-07T09:46:22;100754.06;;;2.15;84.84
22020;BME280;51298;53.362;-1.518;2024-01-07T09:49:08;100759.72;;;2.24;84.98
22020;BME280;51298;53.362;-1.518;2024-01-07T09:51:44;100758.94;;;2.22;84.73
22020;BME280;51298;53.362;-1.518;2024-01-07T09:54:36;100763.81;;;2.28;85.03
22020;BME280;51298;53.362;-1.518;2024-01-07T09:57:11;100766.19;;;2.32;83.87
22020;BME280;51298;53.362;-1.518;2024-01-07T10:00:00;100763.50;;;2.53;83.87
22020;BME280;51298;53.362;-1.518;2024-01-07T10:02:43;100763.50;;;2.53;83.22
22020;BME280;51298;53.362;-1.518;2024-01-07T10:05:31;100762.41;;;2.58;83.20
22020;BME280;51298;53.362;-1.518;2024-01-07T10:08:07;100775.00;;;2.64;82.35
22020;BME280;51298;53.362;-1.518;2024-01-07T10:10:54;100777.03;;;2.58;81.16
22020;BME280;51298;53.362;-1.518;2024-01-07T10:13:27;100779.25;;;2.65;82.09
22020;BME280;51298;53.362;-1.518;2024-01-07T10:16:16;100786.09;;;2.66;82.50
22020;BME280;51298;53.362;-1.518;2024-01-07T10:18:49;100784.47;;;2.64;82.23
22020;BME280;51298;53.362;-1.518;2024-01-07T10:21:37;100782.13;;;2.59;81.86
22020;BME280;51298;53.362;-1.518;2024-01-07T10:24:12;100790.00;;;2.56;80.98
22020;BME280;51298;53.362;-1.518;2024-01-07T10:26:59;100795.00;;;2.59;81.04
22020;BME280;51298;53.362;-1.518;2024-01-07T10:29:32;100797.47;;;2.62;82.61
22020;BME280;51298;53.362;-1.518;2024-01-07T10:32:19;100795.78;;;2.61;81.74
22020;BME280;51298;53.362;-1.518;2024-01-07T10:35:02;100797.16;;;2.68;82.79
22020;BME280;51298;53.362;-1.518;2024-01-07T10:37:48;100797.38;;;2.64;82.75
22020;BME280;51298;53.362;-1.518;2024-01-07T10:40:23;100795.72;;;2.63;82.93
22020;BME280;51298;53.362;-1.518;2024-01-07T10:43:12;100800.50;;;2.71;82.29
22020;BME280;51298;53.362;-1.518;2024-01-07T10:45:47;100805.09;;;2.83;82.66
22020;BME280;51298;53.362;-1.518;2024-01-07T10:48:38;100806.13;;;2.79;81.70
22020;BME280;51298;53.362;-1.518;2024-01-07T10:51:12;100805.78;;;2.86;81.98
22020;BME280;51298;53.362;-1.518;2024-01-07T10:53:59;100812.69;;;2.86;81.95
22020;BME280;51298;53.362;-1.518;2024-01-07T10:56:45;100811.44;;;2.76;80.98
22020;BME280;51298;53.362;-1.518;2024-01-07T10:59:36;100804.34;;;2.81;80.83
22020;BME280;51298;53.362;-1.518;2024-01-07T11:02:11;100801.94;;;2.76;81.11
22020;BME280;51298;53.362;-1.518;2024-01-07T11:05:25;100809.34;;;2.84;81.73
22020;BME280;51298;53.362;-1.518;2024-01-07T11:08:14;100812.69;;;2.86;82.11
22020;BME280;51298;53.362;-1.518;2024-01-07T11:11:18;100808.44;;;2.85;81.56
22020;BME280;51298;53.362;-1.518;2024-01-07T11:13:57;100816.31;;;2.82;82.52
22020;BME280;51298;53.362;-1.518;2024-01-07T11:16:46;100810.28;;;2.64;82.03
22020;BME280;51298;53.362;-1.518;2024-01-07T11:19:20;100809.19;;;2.87;81.73
22020;BME280;51298;53.362;-1.518;2024-01-07T11:22:26;100811.38;;;2.77;81.82
22020;BME280;51298;53.362;-1.518;2024-01-07T11:25:02;100810.47;;;2.78;82.21
22020;BME280;51298;53.362;-1.518;2024-01-07T11:27:48;100807.47;;;2.68;83.09
22020;BME280;51298;53.362;-1.518;2024-01-07T11:30:23;100814.25;;;2.71;82.50
22020;BME280;51298;53.362;-1.518;2024-01-07T11:33:11;100812.63;;;2.68;82.71
22020;BME280;51298;53.362;-1.518;2024-01-07T11:35:56;100820.84;;;2.77;82.76
22020;BME280;51298;53.362;-1.518;2024-01-07T11:38:47;100823.28;;;2.80;82.50
22020;BME280;51298;53.362;-1.518;2024-01-07T11:41:21;100829.09;;;2.85;82.82
22020;BME280;51298;53.362;-1.518;2024-01-07T11:44:07;100822.81;;;2.72;82.79
22020;BME280;51298;53.362;-1.518;2024-01-07T11:46:43;100830.63;;;2.89;82.62
22020;BME280;51298;53.362;-1.518;2024-01-07T11:49:34;100821.69;;;2.96;82.54
22020;BME280;51298;53.362;-1.518;2024-01-07T11:52:06;100817.53;;;2.92;81.84
22020;BME280;51298;53.362;-1.518;2024-01-07T11:54:53;100827.66;;;2.97;81.63
22020;BME280;51298;53.362;-1.518;2024-01-07T11:57:26;100821.75;;;2.76;81.33
22020;BME280;51298;53.362;-1.518;2024-01-07T12:00:15;100826.16;;;2.92;80.87
22020;BME280;51298;53.362;-1.518;2024-01-07T12:02:49;100825.78;;;3.00;80.18
22020;BME280;51298;53.362;-1.518;2024-01-07T12:05:35;100821.03;;;2.91;80.64
22020;BME280;51298;53.362;-1.518;2024-01-07T12:08:08;100825.59;;;2.86;79.77
22020;BME280;51298;53.362;-1.518;2024-01-07T12:10:56;100820.84;;;2.77;80.26
22020;BME280;51298;53.362;-1.518;2024-01-07T12:13:28;100822.06;;;2.69;79.91
22020;BME280;51298;53.362;-1.518;2024-01-07T12:16:16;100826.09;;;2.56;80.59
22020;BME280;51298;53.362;-1.518;2024-01-07T12:18:51;100830.91;;;2.64;81.40
22020;BME280;51298;53.362;-1.518;2024-01-07T12:21:37;100823.94;;;2.66;81.32
22020;BME280;51298;53.362;-1.518;2024-01-07T12:24:11;100826.53;;;2.66;81.67
22020;BME280;51298;53.362;-1.518;2024-01-07T12:27:04;100823.03;;;2.67;81.89
22020;BME280;51298;53.362;-1.518;2024-01-07T12:29:38;100824.13;;;2.80;81.17
22020;BME280;51298;53.362;-1.518;2024-01-07T12:32:28;100818.47;;;2.91;81.76
22020;BME280;51298;53.362;-1.518;2024-01-07T12:35:01;100825.00;;;2.98;82.75
22020;BME280;51298;53.362;-1.518;2024-01-07T12:37:48;100822.28;;;3.01;80.67
22020;BME280;51298;53.362;-1.518;2024-01-07T12:40:22;100820.69;;;2.99;80.00
22020;BME280;51298;53.362;-1.518;2024-01-07T12:43:09;100815.00;;;3.09;81.10
22020;BME280;51298;53.362;-1.518;2024-01-07T12:45:42;100820.63;;;3.00;79.73
22020;BME280;51298;53.362;-1.518;2024-01-07T12:48:28;100817.94;;;3.02;78.53
22020;BME280;51298;53.362;-1.518;2024-01-07T12:51:01;100817.81;;;3.05;77.84
22020;BME280;51298;53.362;-1.518;2024-01-07T12:53:47;100816.19;;;3.02;77.39
22020;BME280;51298;53.362;-1.518;2024-01-07T12:56:20;100822.28;;;3.18;77.77
22020;BME280;51298;53.362;-1.518;2024-01-07T12:59:06;100815.59;;;3.14;76.54
22020;BME280;51298;53.362;-1.518;2024-01-07T13:01:39;100815.16;;;3.06;77.85
22020;BME280;51298;53.362;-1.518;2024-01-07T13:04:27;100820.06;;;3.11;77.58
22020;BME280;51298;53.362;-1.518;2024-01-07T13:07:00;100815.16;;;3.06;77.90
22020;BME280;51298;53.362;-1.518;2024-01-07T13:09:47;100816.28;;;3.01;77.56
22020;BME280;51298;53.362;-1.518;2024-01-07T13:12:20;100812.28;;;3.12;76.51
22020;BME280;51298;53.362;-1.518;2024-01-07T13:15:08;100807.91;;;2.96;76.96
22020;BME280;51298;53.362;-1.518;2024-01-07T13:17:42;100812.41;;;3.09;78.11
22020;BME280;51298;53.362;-1.518;2024-01-07T13:20:28;100805.22;;;3.16;76.94
22020;BME280;51298;53.362;-1.518;2024-01-07T13:23:01;100810.44;;;3.14;76.47
22020;BME280;51298;53.362;-1.518;2024-01-07T13:25:49;100811.13;;;3.18;77.00
22020;BME280;51298;53.362;-1.518;2024-01-07T13:28:22;100813.34;;;3.08;76.27
22020;BME280;51298;53.362;-1.518;2024-01-07T13:31:09;100807.19;;;3.11;76.59
22020;BME280;51298;53.362;-1.518;2024-01-07T13:33:45;100812.34;;;3.11;76.15
22020;BME280;51298;53.362;-1.518;2024-01-07T13:36:33;100806.44;;;3.09;76.64
22020;BME280;51298;53.362;-1.518;2024-01-07T13:39:09;100810.53;;;3.13;77.38
22020;BME280;51298;53.362;-1.518;2024-01-07T13:41:55;100815.41;;;3.19;77.36
22020;BME280;51298;53.362;-1.518;2024-01-07T13:44:28;100814.16;;;3.26;76.06
22020;BME280;51298;53.362;-1.518;2024-01-07T13:47:25;100814.09;;;3.10;76.04
22020;BME280;51298;53.362;-1.518;2024-01-07T13:49:58;100810.22;;;3.02;75.17
22020;BME280;51298;53.362;-1.518;2024-01-07T13:52:44;100812.50;;;3.08;75.37
22020;BME280;51298;53.362;-1.518;2024-01-07T13:55:16;100824.56;;;3.07;77.32
22020;BME280;51298;53.362;-1.518;2024-01-07T13:58:05;100819.00;;;2.98;75.46
22020;BME280;51298;53.362;-1.518;2024-01-07T14:00:37;100820.16;;;3.09;75.46
22020;BME280;51298;53.362;-1.518;2024-01-07T14:03:25;100822.28;;;3.01;76.86
22020;BME280;51298;53.362;-1.518;2024-01-07T14:05:57;100817.25;;;2.98;76.72
22020;BME280;51298;53.362;-1.518;2024-01-07T14:08:44;100817.13;;;3.18;76.97